sensor_id;sensor_type;location;lat;lon;timestamp;P1;durP1;ratioP1;P2;durP2;ratioP2
21392;SDS011;10857;52.228;21.026;2023-08-17T14:08:19;53.63;;;14.82;;
21392;SDS011;10857;52.228;21.026;2023-08-17T14:10:46;30.63;;;10.27;;
21392;SDS011;10857;52.228;21.026;2023-08-17T14:13:13;17.83;;;7.30;;
21392;SDS011;10857;52.228;21.026;2023-08-17T14:15:40;13.20;;;5.50;;
21392;SDS011;10857;52.228;21.026;2023-08-17T14:18:07;12.40;;;5.88;;
21392;SDS011;10857;52.228;21.026;2023-08-17T14:20:34;7.60;;;5.18;;
21392;SDS011;10857;52.228;21.026;2023-08-17T14:23:02;16.50;;;5.60;;
21392;SDS011;10857;52.228;21.026;2023-08-17T14:25:29;10.95;;;5.90;;
21392;SDS011;10857;52.228;21.026;2023-08-17T14:27:57;9.73;;;5.57;;
21392;SDS011;10857;52.228;21.026;2023-08-17T14:30:25;7.60;;;4.93;;
21392;SDS011;10857;52.228;21.026;2023-08-17T14:32:52;6.35;;;4.20;;
21392;SDS011;10857;52.228;21.026;2023-08-17T14:35:26;9.95;;;4.78;;
21392;SDS011;10857;52.228;21.026;2023-08-17T14:37:53;12.35;;;4.90;;
21392;SDS011;10857;52.228;21.026;2023-08-17T14:40:24;9.23;;;5.05;;
21392;SDS011;10857;52.228;21.026;2023-08-17T14:42:51;13.57;;;5.43;;
21392;SDS011;10857;52.228;21.026;2023-08-17T14:45:20;12.68;;;5.10;;
21392;SDS011;10857;52.228;21.026;2023-08-17T14:47:47;6.95;;;4.57;;
21392;SDS011;10857;52.228;21.026;2023-08-17T14:50:14;7.50;;;5.00;;
21392;SDS011;10857;52.228;21.026;2023-08-17T14:52:41;6.50;;;4.72;;
21392;SDS011;10857;52.228;21.026;2023-08-17T14:55:08;9.20;;;4.47;;
21392;SDS011;10857;52.228;21.026;2023-08-17T14:57:35;6.47;;;5.00;;
21392;SDS011;10857;52.228;21.026;2023-08-17T15:00:04;9.13;;;4.50;;
21392;SDS011;10857;52.228;21.026;2023-08-17T15:02:31;8.52;;;4.70;;
21392;SDS011;10857;52.228;21.026;2023-08-17T15:04:58;8.15;;;4.80;;
21392;SDS011;10857;52.228;21.026;2023-08-17T15:07:25;9.70;;;5.05;;
21392;SDS011;10857;52.228;21.026;2023-08-17T15:09:52;11.15;;;5.10;;
21392;SDS011;10857;52.228;21.026;2023-08-17T15:12:19;7.00;;;4.97;;
21392;SDS011;10857;52.228;21.026;2023-08-17T15:14:49;7.05;;;4.70;;
21392;SDS011;10857;52.228;21.026;2023-08-17T15:17:16;6.82;;;4.50;;
21392;SDS011;10857;52.228;21.026;2023-08-17T15:19:43;6.85;;;5.13;;
21392;SDS011;10857;52.228;21.026;2023-08-17T15:22:10;6.40;;;4.80;;
21392;SDS011;10857;52.228;21.026;2023-08-17T15:24:40;6.15;;;4.60;;
21392;SDS011;10857;52.228;21.026;2023-08-17T15:27:09;6.18;;;4.57;;
21392;SDS011;10857;52.228;21.026;2023-08-17T15:29:36;5.50;;;4.78;;
21392;SDS011;10857;52.228;21.026;2023-08-17T15:32:03;7.10;;;4.75;;
21392;SDS011;10857;52.228;21.026;2023-08-17T15:34:30;5.93;;;4.90;;
21392;SDS011;10857;52.228;21.026;2023-08-17T15:36:59;8.32;;;5.03;;
21392;SDS011;10857;52.228;21.026;2023-08-17T15:39:26;10.40;;;5.43;;
21392;SDS011;10857;52.228;21.026;2023-08-17T15:41:53;11.80;;;5.97;;
21392;SDS011;10857;52.228;21.026;2023-08-17T15:44:21;12.65;;;5.22;;
21392;SDS011;10857;52.228;21.026;2023-08-17T15:46:51;10.23;;;5.38;;
21392;SDS011;10857;52.228;21.026;2023-08-17T15:49:23;8.65;;;5.10;;
21392;SDS011;10857;52.228;21.026;2023-08-17T15:51:51;5.75;;;4.78;;
21392;SDS011;10857;52.228;21.026;2023-08-17T15:54:19;8.75;;;5.13;;
21392;SDS011;10857;52.228;21.026;2023-08-17T15:57:02;10.93;;;5.47;;
21392;SDS011;10857;52.228;21.026;2023-08-17T15:59:30;11.30;;;4.68;;
21392;SDS011;10857;52.228;21.026;2023-08-17T16:01:59;10.65;;;5.18;;
21392;SDS011;10857;52.228;21.026;2023-08-17T16:04:26;8.50;;;5.43;;
21392;SDS011;10857;52.228;21.026;2023-08-17T16:06:54;8.15;;;5.10;;
21392;SDS011;10857;52.228;21.026;2023-08-17T16:09:22;8.10;;;5.22;;
21392;SDS011;10857;52.228;21.026;2023-08-17T16:11:57;9.45;;;5.10;;
21392;SDS011;10857;52.228;21.026;2023-08-17T16:14:24;12.60;;;5.00;;
21392;SDS011;10857;52.228;21.026;2023-08-17T16:16:52;7.70;;;4.57;;
21392;SDS011;10857;52.228;21.026;2023-08-17T16:19:23;5.45;;;4.55;;
21392;SDS011;10857;52.228;21.026;2023-08-17T16:21:50;9.38;;;4.85;;
21392;SDS011;10857;52.228;21.026;2023-08-17T16:24:17;8.60;;;4.50;;
21392;SDS011;10857;52.228;21.026;2023-08-17T16:26:44;7.53;;;4.90;;
21392;SDS011;10857;52.228;21.026;2023-08-17T16:29:11;9.05;;;4.55;;
21392;SDS011;10857;52.228;21.026;2023-08-17T16:31:38;5.55;;;4.70;;
21392;SDS011;10857;52.228;21.026;2023-08-17T16:34:05;11.35;;;5.00;;
21392;SDS011;10857;52.228;21.026;2023-08-17T16:36:32;7.60;;;4.68;;
21392;SDS011;10857;52.228;21.026;2023-08-17T16:39:02;8.73;;;4.72;;
21392;SDS011;10857;52.228;21.026;2023-08-17T16:41:29;8.80;;;5.00;;
21392;SDS011;10857;52.228;21.026;2023-08-17T16:43:56;8.95;;;4.95;;
21392;SDS011;10857;52.228;21.026;2023-08-17T16:46:24;8.45;;;5.45;;
21392;SDS011;10857;52.228;21.026;2023-08-17T16:48:51;6.85;;;4.80;;
21392;SDS011;10857;52.228;21.026;2023-08-17T16:51:18;7.68;;;5.07;;
21392;SDS011;10857;52.228;21.026;2023-08-17T16:53:45;10.63;;;4.95;;
21392;SDS011;10857;52.228;21.026;2023-08-17T16:56:16;9.85;;;5.43;;
21392;SDS011;10857;52.228;21.026;2023-08-17T16:58:43;8.88;;;4.88;;
21392;SDS011;10857;52.228;21.026;2023-08-17T17:01:10;11.65;;;5.20;;
21392;SDS011;10857;52.228;21.026;2023-08-17T17:03:41;12.32;;;5.03;;
21392;SDS011;10857;52.228;21.026;2023-08-17T17:06:10;8.93;;;5.45;;
21392;SDS011;10857;52.228;21.026;2023-08-17T17:08:37;7.90;;;5.20;;
21392;SDS011;10857;52.228;21.026;2023-08-17T17:11:04;6.40;;;5.20;;
21392;SDS011;10857;52.228;21.026;2023-08-17T17:13:31;11.80;;;5.32;;
21392;SDS011;10857;52.228;21.026;2023-08-17T17:16:00;12.50;;;5.18;;
21392;SDS011;10857;52.228;21.026;2023-08-17T17:18:27;11.50;;;5.20;;
21392;SDS011;10857;52.228;21.026;2023-08-17T17:20:54;8.02;;;5.57;;
21392;SDS011;10857;52.228;21.026;2023-08-17T17:23:21;11.35;;;5.60;;
21392;SDS011;10857;52.228;21.026;2023-08-17T17:25:48;12.40;;;5.50;;
21392;SDS011;10857;52.228;21.026;2023-08-17T17:28:15;10.35;;;5.47;;
21392;SDS011;10857;52.228;21.026;2023-08-17T17:30:42;10.73;;;5.80;;
21392;SDS011;10857;52.228;21.026;2023-08-17T17:33:10;9.20;;;5.47;;
21392;SDS011;10857;52.228;21.026;2023-08-17T17:35:38;7.93;;;5.10;;
21392;SDS011;10857;52.228;21.026;2023-08-17T17:38:05;10.80;;;5.47;;
21392;SDS011;10857;52.228;21.026;2023-08-17T17:40:33;10.35;;;5.93;;
21392;SDS011;10857;52.228;21.026;2023-08-17T17:43:00;11.95;;;5.75;;
21392;SDS011;10857;52.228;21.026;2023-08-17T17:45:27;12.05;;;5.85;;
21392;SDS011;10857;52.228;21.026;2023-08-17T17:47:54;11.88;;;5.50;;
21392;SDS011;10857;52.228;21.026;2023-08-17T17:50:21;11.38;;;6.20;;
21392;SDS011;10857;52.228;21.026;2023-08-17T17:52:48;16.77;;;6.97;;
21392;SDS011;10857;52.228;21.026;2023-08-17T17:55:15;10.43;;;7.03;;
21392;SDS011;10857;52.228;21.026;2023-08-17T17:57:43;15.20;;;6.90;;
21392;SDS011;10857;52.228;21.026;2023-08-17T18:00:10;14.10;;;6.88;;
21392;SDS011;10857;52.228;21.026;2023-08-17T18:02:37;10.82;;;6.80;;
21392;SDS011;10857;52.228;21.026;2023-08-17T18:05:05;11.18;;;7.10;;
21392;SDS011;10857;52.228;21.026;2023-08-17T18:07:32;13.70;;;9.07;;
21392;SDS011;10857;52.228;21.026;2023-08-17T18:09:59;17.75;;;8.43;;
21392;SDS011;10857;52.228;21.026;2023-08-17T18:12:29;14.05;;;8.15;;
21392;SDS011;10857;52.228;21.026;2023-08-17T18:14:56;10.63;;;7.70;;
21392;SDS011;10857;52.228;21.026;2023-08-17T18:17:24;13.35;;;8.50;;
21392;SDS011;10857;52.228;21.026;2023-08-17T18:19:51;12.18;;;8.20;;
21392;SDS011;10857;52.228;21.026;2023-08-17T18:22:19;14.02;;;7.88;;
21392;SDS011;10857;52.228;21.026;2023-08-17T18:24:47;14.05;;;8.10;;
21392;SDS011;10857;52.228;21.026;2023-08-17T18:27:14;14.82;;;7.55;;
21392;SDS011;10857;52.228;21.026;2023-08-17T18:29:41;12.57;;;7.63;;
21392;SDS011;10857;52.228;21.026;2023-08-17T18:32:08;13.73;;;7.57;;
21392;SDS011;10857;52.228;21.026;2023-08-17T18:34:35;12.65;;;7.18;;
21392;SDS011;10857;52.228;21.026;2023-08-17T18:37:02;10.95;;;6.80;;
21392;SDS011;10857;52.228;21.026;2023-08-17T18:39:28;12.95;;;6.63;;
21392;SDS011;10857;52.228;21.026;2023-08-17T18:41:55;10.18;;;6.47;;
21392;SDS011;10857;52.228;21.026;2023-08-17T18:44:22;13.27;;;6.40;;
21392;SDS011;10857;52.228;21.026;2023-08-17T18:46:49;13.15;;;6.43;;
21392;SDS011;10857;52.228;21.026;2023-08-17T18:49:16;11.25;;;6.57;;
21392;SDS011;10857;52.228;21.026;2023-08-17T18:51:43;12.68;;;6.72;;
21392;SDS011;10857;52.228;21.026;2023-08-17T18:54:10;10.38;;;6.15;;
21392;SDS011;10857;52.228;21.026;2023-08-17T18:56:37;11.50;;;6.22;;
21392;SDS011;10857;52.228;21.026;2023-08-17T18:59:05;12.13;;;7.68;;
21392;SDS011;10857;52.228;21.026;2023-08-17T19:01:34;13.18;;;6.15;;
21392;SDS011;10857;52.228;21.026;2023-08-17T19:04:02;9.02;;;6.32;;
21392;SDS011;10857;52.228;21.026;2023-08-17T19:06:29;15.60;;;6.72;;
21392;SDS011;10857;52.228;21.026;2023-08-17T19:08:56;9.15;;;6.40;;
21392;SDS011;10857;52.228;21.026;2023-08-17T19:11:23;9.88;;;6.65;;
21392;SDS011;10857;52.228;21.026;2023-08-17T19:13:50;10.27;;;7.00;;
21392;SDS011;10857;52.228;21.026;2023-08-17T19:16:17;14.48;;;7.32;;
21392;SDS011;10857;52.228;21.026;2023-08-17T19:18:44;11.30;;;6.55;;
21392;SDS011;10857;52.228;21.026;2023-08-17T19:21:11;11.63;;;6.80;;
21392;SDS011;10857;52.228;21.026;2023-08-17T19:23:38;17.80;;;7.00;;
21392;SDS011;10857;52.228;21.026;2023-08-17T19:26:05;16.58;;;7.22;;
21392;SDS011;10857;52.228;21.026;2023-08-17T19:28:32;16.48;;;6.88;;
21392;SDS011;10857;52.228;21.026;2023-08-17T19:30:59;15.32;;;6.95;;
21392;SDS011;10857;52.228;21.026;2023-08-17T19:33:26;10.77;;;6.50;;
21392;SDS011;10857;52.228;21.026;2023-08-17T19:35:53;19.45;;;7.20;;
21392;SDS011;10857;52.228;21.026;2023-08-17T19:38:20;12.90;;;7.00;;
21392;SDS011;10857;52.228;21.026;2023-08-17T19:40:48;14.25;;;6.90;;
21392;SDS011;10857;52.228;21.026;2023-08-17T19:43:15;12.90;;;7.13;;
21392;SDS011;10857;52.228;21.026;2023-08-17T19:45:42;15.27;;;7.25;;
21392;SDS011;10857;52.228;21.026;2023-08-17T19:48:09;16.70;;;7.20;;
21392;SDS011;10857;52.228;21.026;2023-08-17T19:50:36;17.40;;;7.30;;
21392;SDS011;10857;52.228;21.026;2023-08-17T19:53:03;17.80;;;7.63;;
21392;SDS011;10857;52.228;21.026;2023-08-17T19:55:30;12.10;;;7.57;;
21392;SDS011;10857;52.228;21.026;2023-08-17T19:57:57;14.30;;;7.82;;
21392;SDS011;10857;52.228;21.026;2023-08-17T20:00:24;13.57;;;7.65;;
21392;SDS011;10857;52.228;21.026;2023-08-17T20:02:53;15.13;;;7.63;;
21392;SDS011;10857;52.228;21.026;2023-08-17T20:05:21;13.98;;;7.95;;
21392;SDS011;10857;52.228;21.026;2023-08-17T20:07:49;14.02;;;8.35;;
21392;SDS011;10857;52.228;21.026;2023-08-17T20:10:16;13.43;;;8.20;;
21392;SDS011;10857;52.228;21.026;2023-08-17T20:12:43;17.92;;;7.80;;
21392;SDS011;10857;52.228;21.026;2023-08-17T20:15:10;13.65;;;8.25;;
21392;SDS011;10857;52.228;21.026;2023-08-17T20:17:37;16.95;;;8.57;;
21392;SDS011;10857;52.228;21.026;2023-08-17T20:20:06;16.17;;;8.88;;
21392;SDS011;10857;52.228;21.026;2023-08-17T20:22:42;11.85;;;8.65;;
21392;SDS011;10857;52.228;21.026;2023-08-17T20:25:10;17.25;;;8.75;;
21392;SDS011;10857;52.228;21.026;2023-08-17T20:27:42;15.43;;;8.85;;
21392;SDS011;10857;52.228;21.026;2023-08-17T20:30:09;11.70;;;8.18;;
21392;SDS011;10857;52.228;21.026;2023-08-17T20:32:37;14.40;;;8.93;;
21392;SDS011;10857;52.228;21.026;2023-08-17T20:35:04;14.27;;;8.60;;
21392;SDS011;10857;52.228;21.026;2023-08-17T20:37:31;15.68;;;9.20;;
21392;SDS011;10857;52.228;21.026;2023-08-17T20:39:58;18.08;;;9.15;;
21392;SDS011;10857;52.228;21.026;2023-08-17T20:42:25;16.80;;;9.50;;
21392;SDS011;10857;52.228;21.026;2023-08-17T20:44:52;18.27;;;9.70;;
21392;SDS011;10857;52.228;21.026;2023-08-17T20:47:19;16.90;;;9.07;;
21392;SDS011;10857;52.228;21.026;2023-08-17T20:49:48;17.75;;;9.15;;
21392;SDS011;10857;52.228;21.026;2023-08-17T20:52:15;16.58;;;9.55;;
21392;SDS011;10857;52.228;21.026;2023-08-17T20:54:42;17.85;;;9.45;;
21392;SDS011;10857;52.228;21.026;2023-08-17T20:57:10;18.30;;;10.30;;
21392;SDS011;10857;52.228;21.026;2023-08-17T20:59:37;17.30;;;10.00;;
21392;SDS011;10857;52.228;21.026;2023-08-17T21:02:04;21.05;;;10.02;;
21392;SDS011;10857;52.228;21.026;2023-08-17T21:04:32;15.82;;;9.98;;
21392;SDS011;10857;52.228;21.026;2023-08-17T21:07:01;14.40;;;9.68;;
21392;SDS011;10857;52.228;21.026;2023-08-17T21:09:29;19.00;;;9.57;;
21392;SDS011;10857;52.228;21.026;2023-08-17T21:11:56;15.18;;;10.05;;
21392;SDS011;10857;52.228;21.026;2023-08-17T21:14:25;15.63;;;8.98;;
21392;SDS011;10857;52.228;21.026;2023-08-17T21:16:52;14.52;;;9.35;;
21392;SDS011;10857;52.228;21.026;2023-08-17T21:19:19;18.83;;;9.50;;
21392;SDS011;10857;52.228;21.026;2023-08-17T21:21:45;16.58;;;10.15;;
21392;SDS011;10857;52.228;21.026;2023-08-17T21:24:12;14.48;;;8.88;;
21392;SDS011;10857;52.228;21.026;2023-08-17T21:26:39;20.13;;;10.30;;
21392;SDS011;10857;52.228;21.026;2023-08-17T21:29:06;18.30;;;10.18;;
21392;SDS011;10857;52.228;21.026;2023-08-17T21:31:34;18.00;;;9.77;;
21392;SDS011;10857;52.228;21.026;2023-08-17T21:34:02;15.05;;;9.90;;
21392;SDS011;10857;52.228;21.026;2023-08-17T21:36:29;18.40;;;9.85;;
21392;SDS011;10857;52.228;21.026;2023-08-17T21:38:55;12.48;;;9.77;;
21392;SDS011;10857;52.228;21.026;2023-08-17T21:41:24;18.70;;;9.73;;
21392;SDS011;10857;52.228;21.026;2023-08-17T21:43:51;14.98;;;10.15;;
21392;SDS011;10857;52.228;21.026;2023-08-17T21:46:18;14.60;;;9.95;;
21392;SDS011;10857;52.228;21.026;2023-08-17T21:48:45;17.65;;;9.25;;
21392;SDS011;10857;52.228;21.026;2023-08-17T21:51:12;19.15;;;10.02;;
21392;SDS011;10857;52.228;21.026;2023-08-17T21:53:39;16.50;;;9.73;;
21392;SDS011;10857;52.228;21.026;2023-08-17T21:56:06;16.75;;;9.65;;
21392;SDS011;10857;52.228;21.026;2023-08-17T21:58:33;17.67;;;9.60;;
21392;SDS011;10857;52.228;21.026;2023-08-17T22:01:00;13.40;;;9.65;;
21392;SDS011;10857;52.228;21.026;2023-08-17T22:03:28;14.57;;;9.43;;
21392;SDS011;10857;52.228;21.026;2023-08-17T22:05:55;14.65;;;9.35;;
21392;SDS011;10857;52.228;21.026;2023-08-17T22:08:22;16.08;;;9.20;;
21392;SDS011;10857;52.228;21.026;2023-08-17T22:10:49;15.70;;;9.48;;
21392;SDS011;10857;52.228;21.026;2023-08-17T22:13:16;16.45;;;9.18;;
21392;SDS011;10857;52.228;21.026;2023-08-17T22:15:43;15.48;;;8.80;;
21392;SDS011;10857;52.228;21.026;2023-08-17T22:18:11;18.00;;;8.75;;
21392;SDS011;10857;52.228;21.026;2023-08-17T22:20:38;12.05;;;8.68;;
21392;SDS011;10857;52.228;21.026;2023-08-17T22:23:06;11.80;;;8.13;;
21392;SDS011;10857;52.228;21.026;2023-08-17T22:25:33;12.75;;;8.60;;
21392;SDS011;10857;52.228;21.026;2023-08-17T22:28:00;14.75;;;8.05;;
21392;SDS011;10857;52.228;21.026;2023-08-17T22:30:28;11.23;;;7.68;;
21392;SDS011;10857;52.228;21.026;2023-08-17T22:32:55;9.82;;;7.80;;
21392;SDS011;10857;52.228;21.026;2023-08-17T22:35:22;12.10;;;8.18;;
21392;SDS011;10857;52.228;21.026;2023-08-17T22:37:49;18.10;;;8.07;;
21392;SDS011;10857;52.228;21.026;2023-08-17T22:40:16;12.20;;;8.10;;
21392;SDS011;10857;52.228;21.026;2023-08-17T22:42:43;9.80;;;7.60;;
21392;SDS011;10857;52.228;21.026;2023-08-17T22:45:10;12.13;;;7.80;;
21392;SDS011;10857;52.228;21.026;2023-08-17T22:47:37;11.23;;;8.18;;
21392;SDS011;10857;52.228;21.026;2023-08-17T22:50:04;13.15;;;7.90;;
21392;SDS011;10857;52.228;21.026;2023-08-17T22:52:32;13.38;;;8.73;;
21392;SDS011;10857;52.228;21.026;2023-08-17T22:54:58;14.77;;;8.80;;
21392;SDS011;10857;52.228;21.026;2023-08-17T22:57:26;18.50;;;8.75;;
21392;SDS011;10857;52.228;21.026;2023-08-17T22:59:53;13.65;;;8.80;;
21392;SDS011;10857;52.228;21.026;2023-08-17T23:02:20;13.57;;;9.07;;
21392;SDS011;10857;52.228;21.026;2023-08-17T23:04:47;13.70;;;9.10;;
21392;SDS011;10857;52.228;21.026;2023-08-17T23:07:14;16.30;;;9.27;;
21392;SDS011;10857;52.228;21.026;2023-08-17T23:09:41;23.90;;;9.63;;
21392;SDS011;10857;52.228;21.026;2023-08-17T23:12:08;14.38;;;9.13;;
21392;SDS011;10857;52.228;21.026;2023-08-17T23:14:35;15.68;;;9.48;;
21392;SDS011;10857;52.228;21.026;2023-08-17T23:17:02;13.45;;;9.82;;
21392;SDS011;10857;52.228;21.026;2023-08-17T23:19:29;13.25;;;9.32;;
21392;SDS011;10857;52.228;21.026;2023-08-17T23:21:56;14.93;;;9.40;;
21392;SDS011;10857;52.228;21.026;2023-08-17T23:24:23;15.15;;;9.90;;
21392;SDS011;10857;52.228;21.026;2023-08-17T23:26:50;14.48;;;9.80;;
21392;SDS011;10857;52.228;21.026;2023-08-17T23:29:17;16.33;;;9.30;;
21392;SDS011;10857;52.228;21.026;2023-08-17T23:31:44;18.60;;;10.27;;
21392;SDS011;10857;52.228;21.026;2023-08-17T23:34:11;11.73;;;9.45;;
21392;SDS011;10857;52.228;21.026;2023-08-17T23:36:38;16.17;;;9.90;;
21392;SDS011;10857;52.228;21.026;2023-08-17T23:39:05;13.00;;;9.77;;
21392;SDS011;10857;52.228;21.026;2023-08-17T23:41:32;14.90;;;9.15;;
21392;SDS011;10857;52.228;21.026;2023-08-17T23:44:00;13.10;;;8.85;;
21392;SDS011;10857;52.228;21.026;2023-08-17T23:46:27;13.48;;;9.00;;
21392;SDS011;10857;52.228;21.026;2023-08-17T23:48:54;12.10;;;9.30;;
21392;SDS011;10857;52.228;21.026;2023-08-17T23:51:21;14.05;;;9.35;;
21392;SDS011;10857;52.228;21.026;2023-08-17T23:53:48;15.00;;;8.95;;
21392;SDS011;10857;52.228;21.026;2023-08-17T23:56:15;15.98;;;9.57;;
21392;SDS011;10857;52.228;21.026;2023-08-17T23:58:42;13.85;;;8.90;;
